createdAt,value
2022-10-11T00:04:52.178Z,2.30
2022-10-11T00:09:53.790Z,2.33
2022-10-11T00:14:55.428Z,2.45
2022-10-11T00:19:56.943Z,2.83
2022-10-11T00:24:58.462Z,3.30
2022-10-11T00:30:00.156Z,3.22
2022-10-11T00:35:01.732Z,2.53
2022-10-11T00:40:06.976Z,3.47
2022-10-11T00:45:26.841Z,3.17
2022-10-11T00:50:32.989Z,3.20
2022-10-11T00:55:40.517Z,3.50
2022-10-11T01:00:42.086Z,2.67
2022-10-11T01:05:44.271Z,2.72
2022-10-11T01:10:45.838Z,3.63
2022-10-11T01:16:15.303Z,3.45
2022-10-11T01:21:32.072Z,3.00
2022-10-11T01:26:57.799Z,3.05
2022-10-11T01:31:59.254Z,4.32
2022-10-11T01:37:17.248Z,3.33
2022-10-11T01:42:20.224Z,3.33
2022-10-11T01:47:23.569Z,2.97
2022-10-11T01:52:32.086Z,3.47
2022-10-11T01:57:54.849Z,3.60
2022-10-11T02:03:35.899Z,3.35
2022-10-11T02:08:53.782Z,3.40
2022-10-11T02:14:24.796Z,3.53
2022-10-11T02:19:32.942Z,3.05
2022-10-11T02:24:39.380Z,4.50
2022-10-11T02:29:45.226Z,2.65
2022-10-11T02:34:52.327Z,3.45
2022-10-11T02:39:53.795Z,3.72
2022-10-11T02:45:02.831Z,4.10
2022-10-11T02:50:04.982Z,3.45
2022-10-11T02:55:07.404Z,3.08
2022-10-11T03:00:09.542Z,4.00
2022-10-11T03:05:11.176Z,4.25
2022-10-11T03:10:12.697Z,3.85
2022-10-11T03:15:14.240Z,3.75
2022-10-11T03:20:15.805Z,3.42
2022-10-11T03:25:18.138Z,3.42
2022-10-11T03:30:19.799Z,4.18
2022-10-11T03:35:21.441Z,4.55
2022-10-11T03:40:22.931Z,3.85
2022-10-11T03:45:24.434Z,4.18
2022-10-11T03:50:26.019Z,4.57
2022-10-11T03:55:27.614Z,5.00
2022-10-11T04:00:29.103Z,4.93
2022-10-11T04:05:31.377Z,4.07
2022-10-11T04:10:32.919Z,4.28
2022-10-11T04:15:34.437Z,5.45
2022-10-11T04:20:36.106Z,5.70
2022-10-11T04:25:40.497Z,4.88
2022-10-11T04:30:42.105Z,4.90
2022-10-11T04:35:43.697Z,5.50
2022-10-11T04:40:45.301Z,4.88
2022-10-11T04:45:46.927Z,5.82
2022-10-11T04:50:48.465Z,5.40
2022-10-11T04:56:02.673Z,5.10
2022-10-11T05:01:04.520Z,5.07
2022-10-11T05:06:06.405Z,6.13
2022-10-11T05:11:11.437Z,7.38
2022-10-11T05:16:14.245Z,5.70
2022-10-11T05:21:19.964Z,5.32
2022-10-11T05:26:22.831Z,5.57
2022-10-11T05:31:24.561Z,5.63
2022-10-11T05:36:26.243Z,4.65
2022-10-11T05:41:27.794Z,5.43
2022-10-11T05:46:29.456Z,5.20
2022-10-11T05:51:31.193Z,6.03
2022-10-11T05:56:32.793Z,6.40
2022-10-11T06:01:34.422Z,6.82
2022-10-11T06:06:36.019Z,6.15
2022-10-11T06:11:37.591Z,5.72
2022-10-11T06:16:39.276Z,5.82
2022-10-11T06:21:40.922Z,5.07
2022-10-11T06:26:42.472Z,5.47
2022-10-11T06:31:44.192Z,7.13
2022-10-11T06:36:45.811Z,5.13
2022-10-11T06:41:47.533Z,6.25
2022-10-11T06:46:49.199Z,5.88
2022-10-11T06:51:51.265Z,6.97
2022-10-11T06:56:53.484Z,6.78
2022-10-11T07:01:55.058Z,6.75
2022-10-11T07:06:56.658Z,5.55
2022-10-11T07:11:58.488Z,10.85
2022-10-11T07:17:00.205Z,10.38
2022-10-11T07:22:01.769Z,12.25
2022-10-11T07:27:03.338Z,24.65
2022-10-11T07:32:05.852Z,22.27
2022-10-11T07:37:07.564Z,22.15
2022-10-11T07:42:09.265Z,21.52
2022-10-11T07:47:11.494Z,20.77
2022-10-11T07:52:13.215Z,21.08
2022-10-11T07:57:14.926Z,23.77
2022-10-11T08:02:16.857Z,19.50
2022-10-11T08:07:18.429Z,22.08
2022-10-11T08:12:20.053Z,23.05
2022-10-11T08:17:21.655Z,21.15
2022-10-11T08:22:23.294Z,20.98
2022-10-11T08:27:25.115Z,22.65
2022-10-11T08:32:26.821Z,21.02
2022-10-11T08:37:28.456Z,22.55
2022-10-11T08:42:46.168Z,17.33
2022-10-11T08:47:47.797Z,17.13
2022-10-11T08:53:39.018Z,17.05
2022-10-11T08:58:46.019Z,16.95
2022-10-11T09:03:48.699Z,16.85
2022-10-11T09:09:14.738Z,16.45
2022-10-11T09:14:18.931Z,14.25
2022-10-11T09:19:46.052Z,14.95
2022-10-11T09:30:06.253Z,14.63
2022-10-11T09:35:14.938Z,14.60
2022-10-11T09:40:34.827Z,14.30
2022-10-11T09:45:36.961Z,12.60
2022-10-11T09:50:39.275Z,12.30
2022-10-11T09:56:02.294Z,13.30
2022-10-11T10:01:08.232Z,13.57
2022-10-11T10:06:22.051Z,12.85
2022-10-11T10:11:23.649Z,13.32
2022-10-11T10:16:29.704Z,12.85
2022-10-11T10:21:38.420Z,10.52
2022-10-11T10:26:39.924Z,10.55
2022-10-11T10:32:13.935Z,11.00
2022-10-11T10:37:40.712Z,10.27
2022-10-11T10:42:42.297Z,11.00
2022-10-11T10:47:56.681Z,9.02
2022-10-11T10:53:26.108Z,10.45
2022-10-11T10:58:53.624Z,9.23
2022-10-11T11:04:29.945Z,8.68
2022-10-11T11:09:45.308Z,8.20
2022-10-11T11:15:02.695Z,8.43
2022-10-11T11:20:21.229Z,7.93
2022-10-11T11:25:58.270Z,7.25
2022-10-11T11:31:12.052Z,7.18
2022-10-11T11:36:26.228Z,7.40
2022-10-11T11:41:36.407Z,6.60
2022-10-11T11:46:47.802Z,6.60
2022-10-11T11:51:50.980Z,4.95
2022-10-11T11:57:12.868Z,5.43
2022-10-11T12:02:38.689Z,5.43
2022-10-11T12:08:27.340Z,4.40
2022-10-11T12:13:36.575Z,4.30
2022-10-11T12:18:51.551Z,5.10
2022-10-11T12:23:55.361Z,3.40
2022-10-11T12:29:18.544Z,4.10
2022-10-11T12:39:46.900Z,3.25
2022-10-11T12:45:13.177Z,3.45
2022-10-11T12:50:33.228Z,3.33
2022-10-11T12:55:52.522Z,2.63
2022-10-11T13:00:54.130Z,2.58
2022-10-11T13:06:01.319Z,2.30
2022-10-11T13:11:10.652Z,2.20
2022-10-11T13:16:22.222Z,2.53
2022-10-11T13:21:35.450Z,2.45
2022-10-11T13:26:37.696Z,2.70
2022-10-11T13:31:40.799Z,2.28
2022-10-11T13:36:42.871Z,2.47
2022-10-11T13:41:44.628Z,3.03
2022-10-11T13:46:46.882Z,2.65
2022-10-11T13:52:02.051Z,2.63
2022-10-11T13:57:03.884Z,2.90
2022-10-11T14:02:14.978Z,2.67
2022-10-11T14:07:27.573Z,2.30
2022-10-11T14:12:41.849Z,3.25
2022-10-11T14:17:45.500Z,3.15
2022-10-11T14:22:50.311Z,3.22
2022-10-11T14:27:51.819Z,2.40
2022-10-11T14:32:56.505Z,2.50
2022-10-11T14:38:02.128Z,2.85
2022-10-11T14:43:03.760Z,2.97
2022-10-11T14:48:06.649Z,2.50
2022-10-11T14:53:10.039Z,2.83
2022-10-11T14:58:14.639Z,2.40
2022-10-11T15:03:16.205Z,2.55
2022-10-11T15:08:17.723Z,2.55
2022-10-11T15:13:19.516Z,1.92
2022-10-11T15:18:21.255Z,2.60
2022-10-11T15:23:22.751Z,2.17
2022-10-11T15:28:27.604Z,2.67
2022-10-11T15:33:29.263Z,2.95
2022-10-11T15:38:31.553Z,2.63
2022-10-11T15:43:33.571Z,2.75
2022-10-11T15:48:35.231Z,2.65
2022-10-11T15:53:37.192Z,2.90
2022-10-11T15:58:40.739Z,3.15
2022-10-11T16:03:43.523Z,2.97
2022-10-11T16:08:45.683Z,3.85
2022-10-11T16:13:48.724Z,3.00
2022-10-11T16:18:50.864Z,3.00
2022-10-11T16:23:52.657Z,3.22
2022-10-11T16:28:54.430Z,5.22
2022-10-11T16:33:55.927Z,5.20
2022-10-11T16:38:58.879Z,4.90
2022-10-11T16:44:01.699Z,3.97
2022-10-11T16:49:04.724Z,3.67
2022-10-11T16:54:06.360Z,3.67
2022-10-11T16:59:08.668Z,6.38
2022-10-11T17:04:10.205Z,9.05
2022-10-11T17:09:12.437Z,6.90
2022-10-11T17:14:13.999Z,7.45
2022-10-11T17:19:16.297Z,5.03
2022-10-11T17:24:17.883Z,5.35
2022-10-11T17:29:19.921Z,8.80
2022-10-11T17:34:21.965Z,7.65
2022-10-11T17:39:24.325Z,5.03
2022-10-11T17:44:25.968Z,6.03
2022-10-11T17:49:27.704Z,5.07
2022-10-11T17:54:29.377Z,6.22
2022-10-11T17:59:31.048Z,7.55
2022-10-11T18:04:32.641Z,11.18
2022-10-11T18:09:34.460Z,11.85
2022-10-11T18:14:35.988Z,9.05
2022-10-11T18:19:37.654Z,9.65
2022-10-11T18:24:39.234Z,10.10
2022-10-11T18:29:40.915Z,8.27
2022-10-11T18:34:42.427Z,6.60
2022-10-11T18:39:44.006Z,6.22
2022-10-11T18:44:45.664Z,6.53
2022-10-11T18:49:47.184Z,6.95
2022-10-11T18:54:48.772Z,7.07
2022-10-11T18:59:50.376Z,13.63
2022-10-11T19:04:51.897Z,17.30
2022-10-11T19:09:53.492Z,12.23
2022-10-11T19:14:54.987Z,12.48
2022-10-11T19:19:56.693Z,11.50
2022-10-11T19:24:58.237Z,12.30
2022-10-11T19:29:59.780Z,7.70
2022-10-11T19:35:01.411Z,7.15
2022-10-11T19:40:03.168Z,7.53
2022-10-11T19:45:05.315Z,8.52
2022-10-11T19:50:07.506Z,8.73
2022-10-11T19:55:09.535Z,9.18
2022-10-11T20:00:11.608Z,9.23
2022-10-11T20:05:13.206Z,15.52
2022-10-11T20:10:14.905Z,11.65
2022-10-11T20:15:16.418Z,16.00
2022-10-11T20:20:18.707Z,12.45
2022-10-11T20:25:20.288Z,12.13
2022-10-11T20:30:21.864Z,13.02
2022-10-11T20:35:23.407Z,12.60
2022-10-11T20:40:24.931Z,10.65
2022-10-11T20:45:26.489Z,11.48
2022-10-11T20:50:28.077Z,12.20
2022-10-11T20:55:29.632Z,10.15
2022-10-11T21:00:31.344Z,9.68
2022-10-11T21:05:33.466Z,10.85
2022-10-11T21:10:35.592Z,10.85
2022-10-11T21:15:37.144Z,10.70
2022-10-11T21:20:42.723Z,10.30
2022-10-11T21:25:44.233Z,12.23
2022-10-11T21:30:45.717Z,11.68
2022-10-11T21:35:47.323Z,9.93
2022-10-11T21:40:48.892Z,10.82
2022-10-11T21:45:50.646Z,9.73
2022-10-11T21:50:54.032Z,10.25
2022-10-11T21:55:59.657Z,11.65
2022-10-11T22:01:01.264Z,11.48
2022-10-11T22:06:03.629Z,11.18
2022-10-11T22:11:05.972Z,11.00
2022-10-11T22:16:10.270Z,11.75
2022-10-11T22:21:17.860Z,12.55
2022-10-11T22:26:22.560Z,13.35
2022-10-11T22:31:24.257Z,14.57
2022-10-11T22:36:26.950Z,15.52
2022-10-11T22:41:28.628Z,13.48
2022-10-11T22:46:30.327Z,13.18
2022-10-11T22:51:31.857Z,12.98
2022-10-11T22:56:33.402Z,14.15
2022-10-11T23:01:35.011Z,14.82
2022-10-11T23:06:36.540Z,15.18
2022-10-11T23:11:38.083Z,14.88
2022-10-11T23:16:39.560Z,12.90
2022-10-11T23:21:41.058Z,12.82
2022-10-11T23:26:42.563Z,13.75
2022-10-11T23:31:44.048Z,13.07
2022-10-11T23:36:45.598Z,12.63
2022-10-11T23:41:47.097Z,13.40
2022-10-11T23:46:48.740Z,14.57
2022-10-11T23:51:50.279Z,11.57
2022-10-11T23:56:51.810Z,12.20
